createdAt,value
2023-05-04T00:01:28.185Z,9.82
2023-05-04T00:03:54.928Z,8.43
2023-05-04T00:06:21.892Z,11.13
2023-05-04T00:08:48.495Z,8.95
2023-05-04T00:11:15.055Z,9.07
2023-05-04T00:13:41.622Z,9.20
2023-05-04T00:16:10.643Z,9.05
2023-05-04T00:18:37.979Z,9.45
2023-05-04T00:21:04.678Z,9.60
2023-05-04T00:23:31.308Z,9.45
2023-05-04T00:26:00.970Z,9.73
2023-05-04T00:28:27.748Z,9.60
2023-05-04T00:30:55.246Z,9.63
2023-05-04T00:33:22.082Z,9.90
2023-05-04T00:35:48.567Z,9.43
2023-05-04T00:38:16.725Z,9.70
2023-05-04T00:40:43.395Z,8.80
2023-05-04T00:43:10.852Z,8.90
2023-05-04T00:45:37.635Z,9.43
2023-05-04T00:48:05.112Z,10.15
2023-05-04T00:50:31.727Z,9.15
2023-05-04T00:52:59.947Z,9.07
2023-05-04T00:55:26.621Z,9.02
2023-05-04T00:57:54.608Z,9.43
2023-05-04T01:00:21.564Z,8.70
2023-05-04T01:02:49.465Z,9.15
2023-05-04T01:05:16.103Z,8.27
2023-05-04T01:07:46.610Z,8.77
2023-05-04T01:10:21.589Z,8.90
2023-05-04T01:12:52.888Z,9.10
2023-05-04T01:15:20.460Z,8.48
2023-05-04T01:17:48.090Z,9.00
2023-05-04T01:20:14.640Z,8.23
2023-05-04T01:22:41.438Z,8.43
2023-05-04T01:25:09.123Z,9.10
2023-05-04T01:27:50.330Z,9.18
2023-05-04T01:30:36.642Z,8.93
2023-05-04T01:33:03.419Z,9.20
2023-05-04T01:35:30.259Z,9.02
2023-05-04T01:37:56.855Z,8.32
2023-05-04T01:40:23.400Z,8.40
2023-05-04T01:42:49.900Z,8.95
2023-05-04T01:45:16.546Z,9.13
2023-05-04T01:47:44.793Z,8.38
2023-05-04T01:50:11.551Z,8.88
2023-05-04T01:52:38.102Z,8.98
2023-05-04T01:55:05.419Z,8.50
2023-05-04T01:57:32.626Z,7.97
2023-05-04T01:59:59.114Z,9.20
2023-05-04T02:02:25.810Z,8.48
2023-05-04T02:04:52.447Z,8.02
2023-05-04T02:07:18.955Z,8.30
2023-05-04T02:09:45.618Z,8.45
2023-05-04T02:12:12.165Z,9.93
2023-05-04T02:14:38.725Z,9.32
2023-05-04T02:17:06.170Z,9.20
2023-05-04T02:19:32.766Z,8.65
2023-05-04T02:21:59.330Z,9.50
2023-05-04T02:24:26.212Z,9.30
2023-05-04T02:26:52.733Z,10.25
2023-05-04T02:29:19.333Z,9.70
2023-05-04T02:31:45.907Z,9.50
2023-05-04T02:34:13.944Z,9.73
2023-05-04T02:36:47.077Z,9.48
2023-05-04T02:39:13.893Z,9.43
2023-05-04T02:41:40.468Z,8.85
2023-05-04T02:44:07.360Z,9.15
2023-05-04T02:46:33.895Z,9.30
2023-05-04T02:49:00.863Z,10.35
2023-05-04T02:51:27.399Z,9.90
2023-05-04T02:53:53.924Z,9.88
2023-05-04T02:56:20.474Z,9.95
2023-05-04T02:58:47.275Z,9.65
2023-05-04T03:01:13.907Z,9.82
2023-05-04T03:03:40.456Z,9.20
2023-05-04T03:06:07.080Z,9.70
2023-05-04T03:08:33.639Z,9.25
2023-05-04T03:11:00.190Z,9.45
2023-05-04T03:13:26.896Z,9.98
2023-05-04T03:15:53.442Z,10.82
2023-05-04T03:18:20.262Z,10.00
2023-05-04T03:20:48.718Z,10.57
2023-05-04T03:23:18.978Z,9.55
2023-05-04T03:25:45.449Z,10.00
2023-05-04T03:28:12.159Z,10.10
2023-05-04T03:30:38.711Z,11.13
2023-05-04T03:33:05.680Z,10.68
2023-05-04T03:35:32.368Z,10.02
2023-05-04T03:38:01.200Z,10.82
2023-05-04T03:40:28.230Z,10.90
2023-05-04T03:42:54.784Z,10.88
2023-05-04T03:45:22.825Z,10.60
2023-05-04T03:47:49.498Z,10.98
2023-05-04T03:50:16.177Z,10.65
2023-05-04T03:52:42.714Z,10.68
2023-05-04T03:55:10.335Z,10.75
2023-05-04T03:57:37.004Z,10.32
2023-05-04T04:00:05.806Z,10.63
2023-05-04T04:02:41.671Z,10.13
2023-05-04T04:05:14.068Z,11.65
2023-05-04T04:07:41.386Z,10.60
2023-05-04T04:10:09.087Z,10.88
2023-05-04T04:12:35.645Z,10.40
2023-05-04T04:15:02.785Z,10.73
2023-05-04T04:17:29.295Z,10.52
2023-05-04T04:19:56.047Z,11.35
2023-05-04T04:22:22.533Z,11.23
2023-05-04T04:24:49.039Z,9.98
2023-05-04T04:27:15.809Z,10.27
2023-05-04T04:29:42.842Z,10.93
2023-05-04T04:32:09.551Z,11.43
2023-05-04T04:34:36.532Z,10.30
2023-05-04T04:37:03.118Z,11.00
2023-05-04T04:39:29.661Z,11.10
2023-05-04T04:41:56.414Z,10.38
2023-05-04T04:44:22.923Z,11.55
2023-05-04T04:46:49.538Z,10.32
2023-05-04T04:49:17.764Z,10.82
2023-05-04T04:51:44.496Z,9.98
2023-05-04T04:54:11.418Z,10.10
2023-05-04T04:56:40.492Z,10.75
2023-05-04T04:59:07.298Z,10.85
2023-05-04T05:01:34.005Z,11.13
2023-05-04T05:04:00.687Z,11.20
2023-05-04T05:06:27.198Z,11.00
2023-05-04T05:08:53.781Z,10.90
2023-05-04T05:11:20.691Z,10.30
2023-05-04T05:13:47.301Z,10.23
2023-05-04T05:16:13.919Z,11.43
2023-05-04T05:18:40.577Z,10.27
2023-05-04T05:21:07.251Z,10.23
2023-05-04T05:23:33.782Z,8.55
2023-05-04T05:26:02.667Z,8.93
2023-05-04T05:28:30.271Z,9.27
2023-05-04T05:30:56.812Z,8.48
2023-05-04T05:33:23.793Z,7.75
2023-05-04T05:35:50.296Z,9.02
2023-05-04T05:38:18.476Z,8.75
2023-05-04T05:40:44.979Z,8.05
2023-05-04T05:43:11.765Z,8.38
2023-05-04T05:45:38.573Z,7.72
2023-05-04T05:48:05.816Z,7.70
2023-05-04T05:50:32.445Z,6.97
2023-05-04T05:52:58.944Z,8.25
2023-05-04T05:55:25.518Z,6.95
2023-05-04T05:57:52.055Z,8.32
2023-05-04T06:00:18.816Z,8.23
2023-05-04T06:02:45.681Z,8.50
2023-05-04T06:05:12.600Z,8.75
2023-05-04T06:07:39.191Z,7.57
2023-05-04T06:10:06.309Z,8.00
2023-05-04T06:12:33.283Z,7.80
2023-05-04T06:15:00.028Z,7.60
2023-05-04T06:17:26.593Z,7.82
2023-05-04T06:19:53.196Z,7.75
2023-05-04T06:22:19.689Z,7.22
2023-05-04T06:24:46.812Z,7.53
2023-05-04T06:27:13.364Z,7.57
2023-05-04T06:29:41.213Z,7.95
2023-05-04T06:32:09.830Z,7.43
2023-05-04T06:34:36.490Z,7.70
2023-05-04T06:37:03.330Z,7.35
2023-05-04T06:39:29.866Z,6.88
2023-05-04T06:41:57.012Z,6.50
2023-05-04T06:44:25.427Z,7.90
2023-05-04T06:46:52.072Z,6.63
2023-05-04T06:49:19.303Z,6.93
2023-05-04T06:51:45.862Z,6.40
2023-05-04T06:54:13.018Z,6.85
2023-05-04T06:56:39.747Z,6.35
2023-05-04T06:59:07.086Z,6.68
2023-05-04T07:01:33.753Z,5.88
2023-05-04T07:04:00.503Z,6.32
2023-05-04T07:06:27.407Z,5.93
2023-05-04T07:08:53.991Z,5.55
2023-05-04T07:11:20.641Z,6.63
2023-05-04T07:13:47.533Z,6.07
2023-05-04T07:16:14.079Z,4.63
2023-05-04T07:18:40.698Z,5.18
2023-05-04T07:23:43.176Z,5.10
2023-05-04T07:26:09.753Z,4.80
2023-05-04T07:28:36.306Z,4.18
2023-05-04T07:31:02.919Z,3.97
2023-05-04T07:33:29.695Z,3.97
2023-05-04T07:35:59.769Z,3.38
2023-05-04T07:38:29.377Z,3.28
2023-05-04T07:40:56.344Z,3.50
2023-05-04T07:43:23.071Z,3.30
2023-05-04T07:45:50.746Z,3.13
2023-05-04T07:48:18.164Z,3.20
2023-05-04T07:50:44.882Z,3.22
2023-05-04T07:53:11.792Z,3.10
2023-05-04T07:55:39.111Z,3.97
2023-05-04T07:58:06.552Z,3.53
2023-05-04T08:00:33.165Z,3.40
2023-05-04T08:02:59.757Z,3.40
2023-05-04T08:05:26.479Z,3.15
2023-05-04T08:07:53.244Z,3.03
2023-05-04T08:10:20.663Z,3.45
2023-05-04T08:12:48.396Z,3.40
2023-05-04T08:15:16.111Z,3.55
2023-05-04T08:17:42.800Z,3.15
2023-05-04T08:20:10.974Z,3.30
2023-05-04T08:22:38.604Z,3.08
2023-05-04T08:25:05.817Z,3.25
2023-05-04T08:27:32.962Z,3.05
2023-05-04T08:29:59.686Z,3.55
2023-05-04T08:32:26.761Z,3.67
2023-05-04T08:34:53.460Z,4.15
2023-05-04T08:37:21.697Z,3.58
2023-05-04T08:39:48.305Z,3.50
2023-05-04T08:42:15.396Z,4.55
2023-05-04T08:44:43.809Z,3.53
2023-05-04T08:47:10.786Z,4.07
2023-05-04T08:49:37.602Z,4.25
2023-05-04T08:52:08.265Z,4.50
2023-05-04T08:54:35.610Z,4.65
2023-05-04T08:57:04.120Z,4.53
2023-05-04T08:59:32.044Z,6.18
2023-05-04T09:01:59.607Z,5.18
2023-05-04T09:04:29.317Z,5.63
2023-05-04T09:06:57.806Z,5.47
2023-05-04T09:09:29.959Z,5.50
2023-05-04T09:11:58.825Z,5.50
2023-05-04T09:14:32.054Z,5.07
2023-05-04T09:17:00.736Z,6.30
2023-05-04T09:19:33.322Z,5.53
2023-05-04T09:22:13.397Z,5.68
2023-05-04T09:24:39.933Z,5.55
2023-05-04T09:27:11.107Z,5.53
2023-05-04T09:29:39.651Z,5.15
2023-05-04T09:32:09.607Z,5.55
2023-05-04T09:34:37.370Z,5.80
2023-05-04T09:37:04.131Z,5.50
2023-05-04T09:39:30.738Z,5.85
2023-05-04T09:41:57.296Z,6.07
2023-05-04T09:44:26.891Z,5.78
2023-05-04T09:46:56.797Z,5.65
2023-05-04T09:49:30.744Z,5.30
2023-05-04T09:51:59.229Z,4.88
2023-05-04T09:54:26.587Z,5.65
2023-05-04T09:56:57.140Z,5.53
2023-05-04T09:59:27.629Z,5.03
2023-05-04T10:01:54.342Z,4.70
2023-05-04T10:04:22.090Z,4.43
2023-05-04T10:06:49.277Z,4.35
2023-05-04T10:09:16.516Z,4.35
2023-05-04T10:11:44.025Z,5.07
2023-05-04T10:14:11.007Z,3.80
2023-05-04T10:17:15.003Z,4.40
2023-05-04T10:20:26.278Z,3.75
2023-05-04T10:22:58.907Z,4.43
2023-05-04T10:25:44.375Z,5.03
2023-05-04T10:28:48.423Z,4.00
2023-05-04T10:31:15.770Z,4.20
2023-05-04T10:33:43.252Z,4.55
2023-05-04T10:36:10.693Z,4.60
2023-05-04T10:38:39.381Z,4.60
2023-05-04T10:41:18.204Z,3.90
2023-05-04T10:43:54.351Z,4.10
2023-05-04T10:46:22.135Z,4.20
2023-05-04T10:48:49.276Z,4.32
2023-05-04T10:51:19.802Z,4.28
2023-05-04T10:53:47.302Z,4.22
2023-05-04T10:56:29.408Z,4.18
2023-05-04T10:58:57.009Z,4.53
2023-05-04T11:01:23.979Z,4.95
2023-05-04T11:03:52.028Z,3.72
2023-05-04T11:06:24.772Z,4.13
2023-05-04T11:09:02.064Z,4.28
2023-05-04T11:11:29.295Z,4.00
2023-05-04T11:13:56.523Z,3.88
2023-05-04T11:16:27.574Z,4.25
2023-05-04T11:18:54.979Z,3.53
2023-05-04T11:21:25.682Z,3.60
2023-05-04T11:23:58.966Z,3.60
2023-05-04T11:26:25.968Z,3.85
2023-05-04T11:28:52.551Z,3.63
2023-05-04T11:31:21.279Z,3.60
2023-05-04T11:33:53.266Z,3.40
2023-05-04T11:36:21.818Z,3.30
2023-05-04T11:38:49.658Z,3.20
2023-05-04T11:41:16.733Z,2.80
2023-05-04T11:43:45.080Z,2.40
2023-05-04T11:46:15.093Z,3.15
2023-05-04T11:48:42.667Z,3.03
2023-05-04T11:51:09.179Z,3.63
2023-05-04T11:53:39.748Z,3.42
2023-05-04T11:56:08.698Z,3.65
2023-05-04T11:58:35.634Z,3.20
2023-05-04T12:01:03.500Z,2.90
2023-05-04T12:03:48.026Z,3.03
2023-05-04T12:06:18.753Z,3.03
2023-05-04T12:08:45.439Z,3.47
2023-05-04T12:11:16.268Z,3.00
2023-05-04T12:13:44.987Z,3.45
2023-05-04T12:16:20.794Z,4.03
2023-05-04T12:18:48.012Z,3.60
2023-05-04T12:21:19.087Z,2.92
2023-05-04T12:23:46.813Z,2.75
2023-05-04T12:26:14.193Z,3.08
2023-05-04T12:28:42.392Z,3.40
2023-05-04T12:31:10.075Z,3.05
2023-05-04T12:33:36.739Z,2.65
2023-05-04T12:36:07.409Z,2.50
2023-05-04T12:38:34.378Z,2.53
2023-05-04T12:41:04.210Z,2.20
2023-05-04T12:43:31.527Z,2.42
2023-05-04T12:45:58.141Z,2.55
2023-05-04T12:48:26.924Z,2.10
2023-05-04T12:50:53.491Z,2.38
2023-05-04T12:53:22.284Z,2.05
2023-05-04T12:55:48.884Z,2.50
2023-05-04T12:58:15.465Z,1.85
2023-05-04T13:00:45.065Z,2.00
2023-05-04T13:03:12.963Z,2.05
2023-05-04T13:05:39.833Z,2.15
2023-05-04T13:08:06.425Z,2.30
2023-05-04T13:10:33.001Z,2.40
2023-05-04T13:12:59.579Z,2.10
2023-05-04T13:15:26.166Z,2.20
2023-05-04T13:17:53.778Z,2.15
2023-05-04T13:20:20.363Z,2.53
2023-05-04T13:22:47.929Z,2.53
2023-05-04T13:25:14.959Z,2.20
2023-05-04T13:27:41.641Z,2.35
2023-05-04T13:30:08.958Z,2.63
2023-05-04T13:32:36.242Z,2.55
2023-05-04T13:35:04.770Z,2.60
2023-05-04T13:37:31.613Z,2.22
2023-05-04T13:39:59.404Z,2.40
2023-05-04T13:42:26.126Z,2.35
2023-05-04T13:44:52.866Z,2.00
2023-05-04T13:47:19.372Z,2.10
2023-05-04T13:49:45.960Z,2.45
2023-05-04T13:52:12.592Z,2.15
2023-05-04T13:54:39.173Z,2.53
2023-05-04T13:57:05.814Z,2.15
2023-05-04T13:59:33.017Z,2.30
2023-05-04T14:01:59.720Z,2.50
2023-05-04T14:04:26.356Z,2.35
2023-05-04T14:06:54.702Z,2.67
2023-05-04T14:09:21.524Z,2.10
2023-05-04T14:11:48.098Z,2.40
2023-05-04T14:14:14.815Z,2.45
2023-05-04T14:16:41.888Z,2.55
2023-05-04T14:19:08.401Z,2.78
2023-05-04T14:21:35.892Z,2.15
2023-05-04T14:24:03.409Z,2.22
2023-05-04T14:26:31.541Z,2.33
2023-05-04T14:28:58.209Z,2.55
2023-05-04T14:31:24.810Z,2.40
2023-05-04T14:33:51.414Z,2.70
2023-05-04T14:36:18.031Z,2.80
2023-05-04T14:38:45.401Z,2.45
2023-05-04T14:41:13.598Z,2.80
2023-05-04T14:43:41.737Z,2.28
2023-05-04T14:46:12.640Z,2.47
2023-05-04T14:48:39.250Z,2.28
2023-05-04T14:51:05.831Z,2.00
2023-05-04T14:53:37.279Z,2.55
2023-05-04T14:56:05.875Z,2.28
2023-05-04T14:58:32.677Z,2.20
2023-05-04T15:00:59.618Z,2.63
2023-05-04T15:03:26.325Z,2.40
2023-05-04T15:05:53.404Z,2.50
2023-05-04T15:08:20.001Z,2.40
2023-05-04T15:10:46.628Z,2.72
2023-05-04T15:13:15.592Z,2.15
2023-05-04T15:15:42.443Z,2.15
2023-05-04T15:18:09.353Z,2.45
2023-05-04T15:20:37.669Z,2.70
2023-05-04T15:23:10.247Z,2.15
2023-05-04T15:25:40.911Z,2.47
2023-05-04T15:28:11.875Z,2.53
2023-05-04T15:30:39.022Z,2.58
2023-05-04T15:33:06.307Z,2.50
2023-05-04T15:35:34.577Z,2.40
2023-05-04T15:38:01.607Z,2.33
2023-05-04T15:40:28.619Z,2.40
2023-05-04T15:42:55.420Z,2.40
2023-05-04T15:45:22.232Z,2.60
2023-05-04T15:47:49.144Z,2.28
2023-05-04T15:50:15.988Z,2.45
2023-05-04T15:52:42.672Z,2.42
2023-05-04T15:55:16.976Z,2.50
2023-05-04T15:57:50.908Z,2.38
2023-05-04T16:00:17.769Z,2.50
2023-05-04T16:02:44.586Z,2.40
2023-05-04T16:05:11.323Z,2.15
2023-05-04T16:07:37.856Z,2.17
2023-05-04T16:10:05.124Z,2.40
2023-05-04T16:12:31.866Z,2.17
2023-05-04T16:14:58.446Z,2.30
2023-05-04T16:17:25.160Z,2.20
2023-05-04T16:19:51.787Z,2.80
2023-05-04T16:22:18.324Z,2.67
2023-05-04T16:24:44.950Z,2.40
2023-05-04T16:27:11.500Z,2.63
2023-05-04T16:29:38.023Z,2.42
2023-05-04T16:32:04.829Z,2.70
2023-05-04T16:34:31.429Z,2.38
2023-05-04T16:36:57.973Z,3.22
2023-05-04T16:39:30.095Z,2.50
2023-05-04T16:41:57.717Z,2.50
2023-05-04T16:44:24.352Z,2.83
2023-05-04T16:46:51.576Z,2.13
2023-05-04T16:49:18.429Z,2.70
2023-05-04T16:51:44.997Z,2.63
2023-05-04T16:54:11.578Z,2.25
2023-05-04T16:56:38.210Z,2.47
2023-05-04T16:59:04.723Z,2.53
2023-05-04T17:01:31.572Z,2.42
2023-05-04T17:03:58.690Z,2.75
2023-05-04T17:06:25.468Z,2.50
2023-05-04T17:08:51.979Z,2.30
2023-05-04T17:11:18.617Z,2.85
2023-05-04T17:13:45.283Z,2.58
2023-05-04T17:16:11.828Z,2.30
2023-05-04T17:18:38.438Z,2.28
2023-05-04T17:21:05.177Z,2.80
2023-05-04T17:23:31.735Z,2.70
2023-05-04T17:25:58.433Z,2.50
2023-05-04T17:28:24.974Z,2.47
2023-05-04T17:30:51.527Z,2.70
2023-05-04T17:33:18.107Z,2.53
2023-05-04T17:35:44.609Z,2.72
2023-05-04T17:38:11.495Z,2.60
2023-05-04T17:40:38.097Z,2.33
2023-05-04T17:43:04.638Z,2.58
2023-05-04T17:45:31.191Z,2.55
2023-05-04T17:47:57.766Z,2.40
2023-05-04T17:50:25.496Z,2.78
2023-05-04T17:52:55.895Z,3.13
2023-05-04T17:55:24.305Z,2.77
2023-05-04T17:57:52.464Z,2.70
2023-05-04T18:00:19.395Z,2.80
2023-05-04T18:02:46.041Z,2.42
2023-05-04T18:05:12.728Z,2.55
2023-05-04T18:07:39.608Z,2.80
2023-05-04T18:10:06.790Z,2.80
2023-05-04T18:12:34.987Z,2.50
2023-05-04T18:15:02.738Z,3.10
2023-05-04T18:17:29.753Z,3.20
2023-05-04T18:19:56.606Z,3.20
2023-05-04T18:22:23.108Z,2.90
2023-05-04T18:24:49.728Z,2.75
2023-05-04T18:27:16.368Z,2.70
2023-05-04T18:29:43.164Z,2.83
2023-05-04T18:32:10.743Z,3.25
2023-05-04T18:34:37.723Z,3.28
2023-05-04T18:37:04.440Z,3.80
2023-05-04T18:39:31.750Z,3.63
2023-05-04T18:42:00.860Z,3.75
2023-05-04T18:44:27.748Z,3.40
2023-05-04T18:46:54.348Z,3.65
2023-05-04T18:49:20.958Z,4.32
2023-05-04T18:51:47.566Z,3.58
2023-05-04T18:54:15.437Z,4.05
2023-05-04T18:56:41.938Z,5.00
2023-05-04T18:59:09.471Z,4.63
2023-05-04T19:01:36.818Z,4.60
2023-05-04T19:04:06.330Z,4.28
2023-05-04T19:06:32.961Z,4.55
2023-05-04T19:08:59.905Z,3.97
2023-05-04T19:11:26.544Z,3.78
2023-05-04T19:13:53.261Z,4.00
2023-05-04T19:16:19.892Z,4.50
2023-05-04T19:18:46.557Z,4.50
2023-05-04T19:21:13.194Z,4.10
2023-05-04T19:23:39.895Z,4.63
2023-05-04T19:26:06.508Z,4.72
2023-05-04T19:28:34.766Z,4.18
2023-05-04T19:31:01.354Z,5.10
2023-05-04T19:33:40.353Z,4.28
2023-05-04T19:36:14.250Z,3.70
2023-05-04T19:38:41.146Z,4.20
2023-05-04T19:41:07.703Z,4.05
2023-05-04T19:43:35.086Z,3.97
2023-05-04T19:46:02.189Z,4.18
2023-05-04T19:48:28.691Z,3.78
2023-05-04T19:50:55.920Z,4.30
2023-05-04T19:53:22.436Z,4.05
2023-05-04T19:55:48.984Z,4.57
2023-05-04T19:58:15.526Z,4.10
2023-05-04T20:00:42.245Z,4.25
2023-05-04T20:03:08.818Z,4.28
2023-05-04T20:05:35.551Z,3.97
2023-05-04T20:08:04.753Z,4.40
2023-05-04T20:10:31.863Z,3.67
2023-05-04T20:12:58.464Z,4.00
2023-05-04T20:15:25.153Z,4.10
2023-05-04T20:17:51.965Z,4.50
2023-05-04T20:20:20.503Z,4.70
2023-05-04T20:22:48.998Z,4.20
2023-05-04T20:25:15.608Z,3.92
2023-05-04T20:27:42.124Z,4.60
2023-05-04T20:30:10.129Z,4.07
2023-05-04T20:32:36.832Z,3.85
2023-05-04T20:35:03.516Z,4.00
2023-05-04T20:37:30.036Z,4.20
2023-05-04T20:39:56.620Z,4.10
2023-05-04T20:42:23.310Z,4.32
2023-05-04T20:44:49.856Z,3.83
2023-05-04T20:47:16.431Z,4.18
2023-05-04T20:49:43.062Z,4.22
2023-05-04T20:52:09.619Z,3.97
2023-05-04T20:54:36.597Z,3.80
2023-05-04T20:57:03.235Z,4.10
2023-05-04T20:59:29.821Z,4.35
2023-05-04T21:01:56.406Z,3.80
2023-05-04T21:04:22.977Z,4.15
2023-05-04T21:06:49.450Z,4.50
2023-05-04T21:09:16.333Z,4.18
2023-05-04T21:11:42.912Z,4.30
2023-05-04T21:14:09.455Z,4.03
2023-05-04T21:16:36.547Z,4.07
2023-05-04T21:19:03.064Z,3.97
2023-05-04T21:21:29.691Z,4.00
2023-05-04T21:23:56.255Z,4.35
2023-05-04T21:26:22.809Z,4.00
2023-05-04T21:28:50.667Z,4.20
2023-05-04T21:31:17.235Z,4.25
2023-05-04T21:33:43.839Z,4.20
2023-05-04T21:36:14.078Z,4.60
2023-05-04T21:38:41.230Z,4.60
2023-05-04T21:41:13.811Z,4.90
2023-05-04T21:43:40.669Z,4.20
2023-05-04T21:46:08.166Z,4.75
2023-05-04T21:48:37.407Z,4.90
2023-05-04T21:51:04.088Z,4.22
2023-05-04T21:53:33.307Z,4.70
2023-05-04T21:56:00.974Z,4.68
2023-05-04T21:58:27.484Z,4.30
2023-05-04T22:00:54.721Z,4.40
2023-05-04T22:03:21.657Z,5.00
2023-05-04T22:05:54.038Z,4.93
2023-05-04T22:08:24.527Z,4.75
2023-05-04T22:10:52.237Z,4.97
2023-05-04T22:13:18.823Z,4.53
2023-05-04T22:15:50.021Z,5.15
2023-05-04T22:18:17.293Z,5.22
2023-05-04T22:20:43.918Z,5.07
2023-05-04T22:23:10.571Z,4.78
2023-05-04T22:25:37.154Z,4.05
2023-05-04T22:28:03.842Z,5.35
2023-05-04T22:30:30.929Z,4.57
2023-05-04T22:32:57.663Z,4.40
2023-05-04T22:35:24.359Z,5.30
2023-05-04T22:37:51.100Z,5.05
2023-05-04T22:40:17.674Z,5.03
2023-05-04T22:42:47.479Z,5.00
2023-05-04T22:45:14.649Z,5.20
2023-05-04T22:47:41.883Z,4.93
2023-05-04T22:50:09.505Z,4.90
2023-05-04T22:52:36.731Z,5.13
2023-05-04T22:55:03.935Z,4.50
2023-05-04T22:57:30.538Z,4.88
2023-05-04T22:59:57.645Z,5.45
2023-05-04T23:02:24.513Z,5.20
2023-05-04T23:04:51.122Z,4.78
2023-05-04T23:07:17.755Z,4.82
2023-05-04T23:09:45.360Z,4.85
2023-05-04T23:12:12.692Z,5.07
2023-05-04T23:14:40.856Z,5.35
2023-05-04T23:17:07.624Z,5.07
2023-05-04T23:19:34.231Z,5.32
2023-05-04T23:22:00.878Z,5.43
2023-05-04T23:24:27.381Z,4.82
2023-05-04T23:26:54.001Z,5.10
2023-05-04T23:29:20.519Z,4.80
2023-05-04T23:31:47.259Z,5.05
2023-05-04T23:34:13.862Z,5.28
2023-05-04T23:36:40.990Z,5.38
2023-05-04T23:39:07.947Z,5.30
2023-05-04T23:41:34.601Z,4.63
2023-05-04T23:44:01.811Z,4.55
2023-05-04T23:46:28.390Z,4.85
2023-05-04T23:48:55.008Z,4.20
2023-05-04T23:51:22.070Z,4.85
2023-05-04T23:53:48.732Z,5.43
2023-05-04T23:56:15.620Z,4.85
2023-05-04T23:58:42.410Z,5.13
